Time;durP1;ratioP1;P1;durP2;ratioP2;P2;SDS_P1;SDS_P2;PMS_P1;PMS_P2;Temp;Humidity;BMP_temperature;BMP_pressure;BME280_temperature;BME280_humidity;BME280_pressure;Samples;Min_cycle;Max_cycle;Signal;HPM_P1;HPM_P2
2024/01/01 00:00:14;;;;;;;94.03;52.75;;;10.90;42.70;;;;;;5054209;28;20558;-49
2024/01/01 00:02:41;;;;;;;101.10;58.20;;;10.90;42.50;;;;;;5054548;28;20176;-52
2024/01/01 00:05:07;;;;;;;80.03;48.28;;;11.00;42.40;;;;;;5054465;28;20196;-55
2024/01/01 00:07:33;;;;;;;66.60;46.38;;;10.90;42.40;;;;;;5054436;28;20593;-50
2024/01/01 00:09:59;;;;;;;79.40;52.93;;;10.90;42.30;;;;;;5053928;28;20200;-53
2024/01/01 00:12:25;;;;;;;73.63;46.93;;;10.90;42.40;;;;;;5054085;28;20416;-50
2024/01/01 00:14:54;;;;;;;54.53;39.05;;;10.90;42.30;;;;;;5054019;28;20223;-54
2024/01/01 00:17:19;;;;;;;71.87;46.60;;;10.90;42.20;;;;;;5054146;28;20173;-49
2024/01/01 00:19:45;;;;;;;40.40;33.53;;;10.90;42.20;;;;;;5054027;28;20199;-55
2024/01/01 00:22:11;;;;;;;62.47;45.25;;;10.90;42.00;;;;;;5054196;28;20192;-53
2024/01/01 00:24:37;;;;;;;63.33;43.03;;;10.90;42.10;;;;;;5054115;28;20594;-52
2024/01/01 00:27:03;;;;;;;76.70;44.43;;;10.90;42.30;;;;;;5053433;28;20209;-55
2024/01/01 00:29:28;;;;;;;49.90;37.15;;;10.80;42.00;;;;;;5067559;22;20275;-47
2024/01/01 00:31:54;;;;;;;68.27;35.90;;;10.90;42.10;;;;;;5035857;28;20178;-47
2024/01/01 00:34:21;;;;;;;59.40;39.07;;;10.90;42.20;;;;;;5033801;28;20248;-46
2024/01/01 00:36:48;;;;;;;65.75;39.22;;;10.80;42.10;;;;;;5017010;28;20433;-45
2024/01/01 00:39:14;;;;;;;58.72;28.02;;;10.90;42.80;;;;;;5013865;28;20241;-51
2024/01/01 00:41:40;;;;;;;37.78;24.20;;;10.90;42.10;;;;;;5014054;28;20176;-48
2024/01/01 00:44:06;;;;;;;41.43;32.70;;;10.90;42.00;;;;;;5013964;28;20254;-47
2024/01/01 00:46:32;;;;;;;39.50;27.65;;;10.90;41.90;;;;;;5014267;28;20447;-51
2024/01/01 00:48:58;;;;;;;49.77;29.93;;;10.90;42.00;;;;;;5013972;28;20648;-50
2024/01/01 00:51:24;;;;;;;30.27;22.77;;;10.90;42.10;;;;;;5013885;28;20274;-48
2024/01/01 00:53:51;;;;;;;32.83;20.83;;;10.90;42.10;;;;;;5013677;28;20254;-49
2024/01/01 00:56:17;;;;;;;26.00;16.75;;;10.90;41.90;;;;;;5013749;28;20468;-48
2024/01/01 00:58:42;;;;;;;18.70;13.97;;;10.90;41.90;;;;;;5013634;28;20177;-50
2024/01/01 01:01:08;;;;;;;22.30;16.27;;;10.90;41.90;;;;;;5013869;28;20175;-48
2024/01/01 01:03:35;;;;;;;22.40;16.10;;;10.90;41.90;;;;;;5013765;28;20201;-46
2024/01/01 01:06:02;;;;;;;31.50;17.38;;;10.90;41.90;;;;;;5013617;28;20179;-48
2024/01/01 01:08:28;;;;;;;30.38;13.85;;;10.80;41.90;;;;;;5013390;28;20182;-46
2024/01/01 01:10:53;;;;;;;17.23;12.70;;;10.90;41.80;;;;;;5013580;28;20206;-48
2024/01/01 01:13:19;;;;;;;27.70;19.73;;;10.90;41.80;;;;;;5013548;28;20181;-49
2024/01/01 01:15:45;;;;;;;32.57;16.00;;;10.90;41.80;;;;;;5013548;28;20217;-47
2024/01/01 01:18:11;;;;;;;32.53;16.70;;;10.90;41.80;;;;;;5013348;28;20475;-47
2024/01/01 01:20:42;;;;;;;21.27;14.10;;;10.90;41.70;;;;;;5013284;28;20198;-51
2024/01/01 01:23:08;;;;;;;20.45;14.65;;;10.90;41.80;;;;;;5013235;28;20300;-47
2024/01/01 01:25:35;;;;;;;18.93;14.30;;;10.80;41.60;;;;;;5013319;28;20664;-50
2024/01/01 01:28:02;;;;;;;23.80;16.30;;;10.80;41.70;;;;;;5013299;28;20186;-47
2024/01/01 01:30:28;;;;;;;15.82;9.50;;;10.80;41.70;;;;;;5012874;28;20762;-47
2024/01/01 01:32:54;;;;;;;15.37;9.47;;;10.80;41.70;;;;;;5013039;28;20182;-52
2024/01/01 01:35:20;;;;;;;20.83;11.70;;;10.80;41.70;;;;;;5012972;28;20465;-47
2024/01/01 01:37:45;;;;;;;14.53;10.90;;;10.80;41.70;;;;;;5012208;28;20174;-52
2024/01/01 01:40:11;;;;;;;19.10;10.43;;;10.80;41.70;;;;;;5012719;28;20198;-48
2024/01/01 01:42:37;;;;;;;11.13;7.63;;;10.70;41.80;;;;;;4995310;28;20678;-51
2024/01/01 01:45:03;;;;;;;13.03;7.77;;;10.70;41.80;;;;;;5012927;28;20213;-46
2024/01/01 01:47:29;;;;;;;15.07;11.10;;;10.70;41.80;;;;;;5012879;28;20198;-47
2024/01/01 01:49:56;;;;;;;20.70;13.18;;;10.70;41.90;;;;;;5012556;28;20206;-51
2024/01/01 01:52:22;;;;;;;21.67;11.23;;;10.70;41.90;;;;;;5012756;28;20616;-52
2024/01/01 01:54:51;;;;;;;16.17;8.35;;;10.70;41.90;;;;;;5012647;28;20205;-45
2024/01/01 01:57:17;;;;;;;15.05;8.20;;;10.60;42.00;;;;;;5012717;28;20668;-46
2024/01/01 01:59:44;;;;;;;9.15;8.38;;;10.60;42.00;;;;;;5012515;28;20221;-52
2024/01/01 02:02:11;;;;;;;18.92;9.13;;;10.60;42.00;;;;;;5012631;28;20182;-47
2024/01/01 02:04:37;;;;;;;17.35;10.45;;;10.60;42.60;;;;;;5012500;28;20266;-50
2024/01/01 02:07:04;;;;;;;13.25;8.65;;;10.60;41.80;;;;;;5012760;28;20190;-52
2024/01/01 02:09:33;;;;;;;10.50;6.33;;;10.60;41.90;;;;;;5012303;28;20198;-45
2024/01/01 02:11:59;;;;;;;10.70;7.45;;;10.60;41.90;;;;;;5012591;28;20413;-51
2024/01/01 02:14:25;;;;;;;13.68;6.90;;;10.60;42.10;;;;;;5012428;28;20560;-47
2024/01/01 02:16:51;;;;;;;9.73;5.77;;;10.70;42.10;;;;;;5012342;28;20175;-49
2024/01/01 02:19:22;;;;;;;13.67;7.57;;;10.60;42.10;;;;;;5012051;28;20190;-52
2024/01/01 02:21:49;;;;;;;10.70;6.80;;;10.60;42.00;;;;;;5012510;28;20521;-46
2024/01/01 02:24:18;;;;;;;9.73;3.97;;;10.60;41.90;;;;;;5012204;28;20183;-48
2024/01/01 02:26:45;;;;;;;8.35;4.22;;;10.60;41.90;;;;;;5012348;28;20174;-49
2024/01/01 02:29:11;;;;;;;7.25;5.32;;;10.60;42.50;;;;;;5012024;28;20221;-47
2024/01/01 02:31:37;;;;;;;19.80;9.45;;;10.60;41.80;;;;;;5012135;28;20270;-50
2024/01/01 02:34:03;;;;;;;10.53;7.67;;;10.60;41.80;;;;;;5012451;28;20333;-47
2024/01/01 02:36:29;;;;;;;5.30;3.83;;;10.50;42.00;;;;;;5012266;28;20525;-49
2024/01/01 02:38:55;;;;;;;18.40;9.05;;;10.50;42.10;;;;;;5011777;28;20233;-47
2024/01/01 02:41:21;;;;;;;7.53;5.43;;;10.40;42.00;;;;;;5012321;28;20181;-45
2024/01/01 02:43:47;;;;;;;11.52;8.13;;;10.40;42.10;;;;;;5012103;28;20559;-49
2024/01/01 02:46:13;;;;;;;10.77;5.50;;;10.40;42.20;;;;;;5012047;28;20257;-50
2024/01/01 02:48:38;;;;;;;7.88;4.65;;;10.40;42.20;;;;;;5011934;28;20171;-47
2024/01/01 02:51:04;;;;;;;8.80;7.90;;;10.40;42.30;;;;;;5016304;28;20213;-47
2024/01/01 02:53:32;;;;;;;6.10;5.40;;;10.40;42.20;;;;;;5016125;28;20253;-47
2024/01/01 02:55:58;;;;;;;11.07;5.50;;;10.40;42.20;;;;;;5016005;28;20206;-46
2024/01/01 02:58:23;;;;;;;6.33;5.30;;;10.30;42.30;;;;;;5016032;28;20171;-50
2024/01/01 03:00:49;;;;;;;7.73;5.70;;;10.40;42.30;;;;;;4998148;28;20190;-51
2024/01/01 03:03:15;;;;;;;15.97;6.93;;;10.30;42.20;;;;;;5015907;28;20178;-46
2024/01/01 03:05:43;;;;;;;8.43;4.63;;;10.30;42.30;;;;;;5016155;28;20182;-47
2024/01/01 03:08:09;;;;;;;3.92;3.55;;;10.30;42.20;;;;;;5015751;28;20189;-49
2024/01/01 03:10:35;;;;;;;3.72;2.75;;;10.30;42.40;;;;;;5016002;28;20206;-50
2024/01/01 03:13:01;;;;;;;10.83;5.03;;;10.30;42.50;;;;;;5015634;28;20182;-47
2024/01/01 03:15:27;;;;;;;4.93;4.40;;;10.30;42.50;;;;;;5015557;28;20461;-50
2024/01/01 03:17:53;;;;;;;5.20;3.20;;;10.30;42.50;;;;;;5015596;28;20674;-51
2024/01/01 03:20:19;;;;;;;17.33;4.20;;;10.20;42.40;;;;;;5015533;28;20202;-52
2024/01/01 03:22:45;;;;;;;6.70;3.67;;;10.30;42.50;;;;;;5015752;28;20174;-47
2024/01/01 03:25:11;;;;;;;7.13;3.05;;;10.30;42.60;;;;;;5015596;28;20641;-47
2024/01/01 03:27:37;;;;;;;7.95;5.18;;;10.30;42.50;;;;;;5015502;28;20189;-50
2024/01/01 03:30:06;;;;;;;6.43;2.95;;;10.20;42.40;;;;;;5015002;28;20222;-51
2024/01/01 03:32:35;;;;;;;2.47;2.28;;;10.20;42.50;;;;;;5015348;28;20808;-46
2024/01/01 03:35:02;;;;;;;4.20;3.55;;;10.20;42.40;;;;;;5015318;28;20556;-49
2024/01/01 03:37:27;;;;;;;7.85;3.08;;;10.20;42.40;;;;;;5015375;28;20174;-50
2024/01/01 03:39:54;;;;;;;2.10;1.90;;;10.20;42.40;;;;;;5015249;28;20191;-45
2024/01/01 03:42:20;;;;;;;4.70;3.88;;;10.20;42.30;;;;;;5015054;28;20445;-50
2024/01/01 03:44:46;;;;;;;7.70;3.60;;;10.10;42.40;;;;;;5015011;28;20214;-48
2024/01/01 03:47:11;;;;;;;4.23;3.03;;;10.10;42.40;;;;;;5015169;28;20178;-47
2024/01/01 03:49:39;;;;;;;6.40;4.33;;;10.10;42.40;;;;;;5014962;28;20195;-51
2024/01/01 03:52:05;;;;;;;3.30;2.50;;;10.10;42.50;;;;;;5014727;28;20185;-49
2024/01/01 03:54:31;;;;;;;8.60;4.60;;;10.00;42.50;;;;;;5015052;28;20198;-47
2024/01/01 03:56:57;;;;;;;2.90;2.60;;;10.00;42.40;;;;;;5014921;28;20413;-48
2024/01/01 03:59:22;;;;;;;6.03;3.23;;;10.00;42.40;;;;;;5014624;28;20197;-50
2024/01/01 04:01:48;;;;;;;4.43;3.87;;;10.00;42.40;;;;;;5013843;28;20181;-47
2024/01/01 04:04:14;;;;;;;2.00;1.80;;;10.00;42.50;;;;;;5014967;28;20225;-47
2024/01/01 04:06:39;;;;;;;6.60;5.73;;;10.00;42.40;;;;;;5014713;28;20240;-49
2024/01/01 04:09:05;;;;;;;2.43;1.80;;;9.90;42.60;;;;;;5014565;28;20194;-49
2024/01/01 04:11:31;;;;;;;7.00;3.90;;;9.90;42.60;;;;;;5014636;28;20175;-45
2024/01/01 04:13:57;;;;;;;4.13;2.87;;;9.90;42.70;;;;;;5014563;28;20174;-52
2024/01/01 04:16:22;;;;;;;16.17;3.13;;;9.90;42.70;;;;;;5014744;28;20296;-46
2024/01/01 04:18:48;;;;;;;4.57;3.67;;;9.90;42.80;;;;;;5014304;28;20538;-46
2024/01/01 04:21:14;;;;;;;3.07;2.77;;;10.00;42.80;;;;;;5014525;28;20178;-51
2024/01/01 04:23:40;;;;;;;5.00;3.90;;;9.90;43.00;;;;;;5014488;28;20229;-50
2024/01/01 04:26:05;;;;;;;11.73;3.97;;;9.90;42.90;;;;;;5014444;28;20178;-47
2024/01/01 04:28:31;;;;;;;6.80;4.07;;;9.90;43.00;;;;;;5014114;28;20632;-46
2024/01/01 04:30:57;;;;;;;4.40;3.33;;;9.90;42.90;;;;;;5014059;28;20752;-51
2024/01/01 04:33:22;;;;;;;8.40;4.57;;;9.90;42.90;;;;;;5014408;28;20182;-51
2024/01/01 04:35:48;;;;;;;8.67;5.67;;;9.90;42.70;;;;;;5014163;28;20221;-45
2024/01/01 04:38:14;;;;;;;1.05;0.73;;;9.90;42.70;;;;;;5014101;28;20178;-47
2024/01/01 04:40:40;;;;;;;3.60;2.13;;;9.90;42.80;;;;;;5014090;28;20191;-48
2024/01/01 04:43:05;;;;;;;2.10;1.83;;;9.90;42.90;;;;;;5014017;28;20587;-46
2024/01/01 04:45:35;;;;;;;4.23;2.50;;;9.90;42.70;;;;;;5014223;28;20420;-47
2024/01/01 04:48:02;;;;;;;3.17;2.75;;;9.90;42.60;;;;;;5014139;28;20252;-48
2024/01/01 04:50:29;;;;;;;3.28;2.70;;;9.80;42.50;;;;;;5013850;28;20293;-47
2024/01/01 04:52:54;;;;;;;6.28;3.50;;;9.70;42.70;;;;;;5013874;28;20589;-51
2024/01/01 04:55:20;;;;;;;4.40;3.13;;;9.70;42.70;;;;;;5013755;28;20233;-46
2024/01/01 04:57:47;;;;;;;1.40;1.30;;;9.60;42.70;;;;;;5014045;28;20237;-47
2024/01/01 05:00:14;;;;;;;3.65;2.88;;;9.60;42.70;;;;;;5013789;28;20453;-49
2024/01/01 05:02:39;;;;;;;3.08;1.35;;;9.60;42.70;;;;;;5013699;28;20615;-48
2024/01/01 05:05:08;;;;;;;1.38;1.27;;;9.60;42.60;;;;;;5013790;28;20213;-48
2024/01/01 05:07:37;;;;;;;5.32;3.80;;;9.60;42.80;;;;;;5013590;28;20178;-48
2024/01/01 05:10:04;;;;;;;2.80;1.35;;;9.60;42.60;;;;;;5013395;28;20199;-47
2024/01/01 05:12:30;;;;;;;4.07;2.88;;;9.60;42.40;;;;;;5021628;28;20667;-47
2024/01/01 05:14:55;;;;;;;3.20;1.73;;;9.50;42.50;;;;;;5013536;28;20326;-52
2024/01/01 05:17:23;;;;;;;5.90;2.80;;;9.50;42.60;;;;;;5013506;28;20178;-47
2024/01/01 05:19:50;;;;;;;2.88;2.50;;;9.50;42.80;;;;;;5013266;28;20206;-48
2024/01/01 05:22:16;;;;;;;1.50;1.40;;;9.50;42.70;;;;;;5013488;28;20179;-48
2024/01/01 05:24:42;;;;;;;2.90;1.30;;;9.40;42.80;;;;;;5013277;28;20220;-48
2024/01/01 05:27:08;;;;;;;5.27;2.57;;;9.40;42.80;;;;;;5013255;28;20475;-49
2024/01/01 05:29:34;;;;;;;3.17;2.40;;;9.40;42.60;;;;;;5012843;28;20452;-49
2024/01/01 05:32:00;;;;;;;2.80;1.73;;;9.40;42.70;;;;;;5013201;28;20189;-48
2024/01/01 05:34:26;;;;;;;4.50;1.83;;;9.40;43.30;;;;;;5013152;28;20415;-47
2024/01/01 05:36:52;;;;;;;3.60;1.97;;;9.40;42.60;;;;;;5013103;28;20774;-51
2024/01/01 05:39:18;;;;;;;1.60;1.40;;;9.40;42.60;;;;;;5012751;28;20441;-51
2024/01/01 05:41:44;;;;;;;2.73;0.97;;;9.50;42.70;;;;;;5013023;28;20205;-47
2024/01/01 05:44:09;;;;;;;5.60;1.50;;;9.50;42.70;;;;;;5021218;28;20202;-51
2024/01/01 05:46:35;;;;;;;2.80;2.10;;;9.50;42.90;;;;;;5013084;28;20175;-51
2024/01/01 05:49:01;;;;;;;3.43;2.50;;;9.60;42.70;;;;;;5012736;28;20268;-46
2024/01/01 05:51:27;;;;;;;1.70;1.60;;;9.60;42.80;;;;;;5012970;28;20179;-50
2024/01/01 05:53:52;;;;;;;1.77;1.50;;;9.60;42.70;;;;;;5012902;28;20206;-52
2024/01/01 05:56:18;;;;;;;4.30;2.93;;;9.60;42.60;;;;;;5013852;28;20199;-45
2024/01/01 05:58:44;;;;;;;3.13;2.47;;;9.70;42.70;;;;;;5013477;28;20715;-49
2024/01/01 06:01:09;;;;;;;2.90;2.53;;;9.70;42.70;;;;;;5013518;28;20172;-46
2024/01/01 06:03:35;;;;;;;3.57;1.97;;;9.70;43.00;;;;;;5012791;28;20167;-46
2024/01/01 06:06:01;;;;;;;3.47;2.47;;;9.70;42.90;;;;;;5012694;28;20178;-50
2024/01/01 06:08:26;;;;;;;3.80;2.23;;;9.80;43.00;;;;;;5012335;28;20711;-50
2024/01/01 06:10:52;;;;;;;1.00;0.80;;;9.80;43.00;;;;;;5020765;28;20201;-51
2024/01/01 06:13:18;;;;;;;3.03;0.98;;;9.90;43.00;;;;;;5012611;28;20187;-51
2024/01/01 06:15:44;;;;;;;2.40;1.30;;;9.90;43.00;;;;;;5012467;28;20222;-47
2024/01/01 06:18:11;;;;;;;1.30;1.17;;;10.00;42.90;;;;;;5012183;28;20409;-46
2024/01/01 06:20:37;;;;;;;3.30;1.63;;;10.00;42.80;;;;;;5012315;28;20190;-51
2024/01/01 06:23:03;;;;;;;1.87;1.53;;;10.10;42.70;;;;;;5012142;28;20711;-51
2024/01/01 06:25:29;;;;;;;8.75;2.30;;;10.20;42.50;;;;;;5012129;28;20175;-47
2024/01/01 06:27:54;;;;;;;0.90;0.40;;;10.20;42.40;;;;;;5012454;28;20699;-49
2024/01/01 06:30:20;;;;;;;4.60;2.20;;;10.20;42.40;;;;;;5011946;28;20706;-52
2024/01/01 06:32:46;;;;;;;1.47;1.33;;;10.30;42.40;;;;;;5012289;28;20197;-50
2024/01/01 06:35:12;;;;;;;1.45;1.10;;;10.20;42.20;;;;;;5048008;22;20277;-49
2024/01/01 06:37:38;;;;;;;2.67;1.37;;;10.30;42.30;;;;;;5031875;28;20236;-55
2024/01/01 06:40:06;;;;;;;2.60;1.63;;;10.30;42.40;;;;;;5031582;28;20174;-55
2024/01/01 06:42:31;;;;;;;2.90;2.70;;;10.30;42.50;;;;;;5031760;28;20174;-50
2024/01/01 06:45:01;;;;;;;1.27;0.93;;;10.30;42.40;;;;;;5031713;28;20288;-52
2024/01/01 06:47:26;;;;;;;2.40;2.20;;;10.30;42.30;;;;;;5031800;28;20549;-53
2024/01/01 06:49:52;;;;;;;1.20;0.80;;;10.30;42.10;;;;;;5031567;28;20188;-52
2024/01/01 06:52:18;;;;;;;4.53;1.20;;;10.30;42.10;;;;;;5031812;28;20177;-51
2024/01/01 06:54:44;;;;;;;1.42;1.33;;;10.30;42.00;;;;;;5031430;28;20213;-53
2024/01/01 06:57:09;;;;;;;2.20;2.00;;;10.40;42.10;;;;;;5031610;28;20196;-56
2024/01/01 06:59:36;;;;;;;1.90;1.80;;;10.40;42.10;;;;;;5031610;28;20197;-55
2024/01/01 07:02:02;;;;;;;4.93;2.60;;;10.40;41.90;;;;;;5031528;28;20635;-57
2024/01/01 07:04:28;;;;;;;3.60;2.87;;;10.50;42.00;;;;;;5031572;28;20217;-51
2024/01/01 07:06:56;;;;;;;2.10;1.83;;;10.50;41.90;;;;;;5031548;28;20503;-51
2024/01/01 07:09:22;;;;;;;4.13;1.50;;;10.50;41.90;;;;;;5031634;28;20173;-57
2024/01/01 07:11:48;;;;;;;2.17;1.60;;;10.50;41.70;;;;;;5031519;28;20188;-57
2024/01/01 07:14:14;;;;;;;9.43;2.42;;;10.50;41.80;;;;;;5031377;28;20190;-51
2024/01/01 07:16:40;;;;;;;1.40;1.23;;;10.50;41.90;;;;;;5031391;28;20288;-54
2024/01/01 07:19:07;;;;;;;7.07;2.05;;;10.50;41.90;;;;;;5031167;28;20174;-57
2024/01/01 07:21:32;;;;;;;2.72;2.20;;;10.40;41.80;;;;;;5031451;28;20182;-56
2024/01/01 07:23:58;;;;;;;2.10;2.00;;;10.40;42.00;;;;;;5031128;28;20748;-49
2024/01/01 07:26:24;;;;;;;1.67;1.37;;;10.50;42.00;;;;;;5031604;28;20174;-55
2024/01/01 07:28:49;;;;;;;2.95;1.30;;;10.50;42.00;;;;;;5015030;28;20175;-54
2024/01/01 07:31:15;;;;;;;1.70;1.47;;;10.50;42.00;;;;;;5011702;28;20202;-49
2024/01/01 07:33:41;;;;;;;3.40;1.40;;;10.50;42.00;;;;;;5011439;28;20540;-53
2024/01/01 07:36:11;;;;;;;1.67;1.17;;;10.60;42.00;;;;;;5012229;28;20203;-55
2024/01/01 07:38:38;;;;;;;1.45;1.25;;;10.60;41.90;;;;;;5015142;28;20931;-51
2024/01/01 07:41:04;;;;;;;2.42;1.67;;;10.50;42.00;;;;;;5015374;28;20568;-53
2024/01/01 07:43:30;;;;;;;2.00;1.57;;;10.60;42.00;;;;;;5015387;28;20166;-57
2024/01/01 07:45:55;;;;;;;6.10;1.73;;;10.60;41.90;;;;;;5015204;28;20528;-53
2024/01/01 07:48:21;;;;;;;4.67;3.60;;;10.50;42.00;;;;;;5015040;28;20258;-51
2024/01/01 07:50:47;;;;;;;7.13;2.20;;;10.50;42.00;;;;;;5014960;28;20179;-50
2024/01/01 07:53:12;;;;;;;1.60;1.07;;;10.60;42.00;;;;;;5015008;28;20175;-56
2024/01/01 07:55:38;;;;;;;2.23;1.07;;;10.50;42.00;;;;;;5014878;28;20578;-50
2024/01/01 07:58:05;;;;;;;3.17;1.30;;;10.50;42.10;;;;;;5014939;28;20197;-55
2024/01/01 08:00:30;;;;;;;2.72;1.80;;;10.50;42.20;;;;;;5014720;28;20166;-53
2024/01/01 08:02:57;;;;;;;1.57;1.00;;;10.50;42.10;;;;;;5014790;28;20178;-52
2024/01/01 08:05:23;;;;;;;2.75;1.67;;;10.50;42.40;;;;;;5014658;28;20209;-57
2024/01/01 08:07:49;;;;;;;2.40;2.20;;;10.40;42.40;;;;;;5015056;28;20245;-55
2024/01/01 08:10:15;;;;;;;1.40;1.30;;;10.50;42.40;;;;;;5034514;28;20416;-51
2024/01/01 08:12:41;;;;;;;2.28;1.83;;;10.50;42.30;;;;;;5034538;28;20258;-58
2024/01/01 08:15:07;;;;;;;5.72;2.38;;;10.60;42.20;;;;;;5034130;28;20611;-56
2024/01/01 08:17:33;;;;;;;1.25;0.82;;;10.60;41.60;;;;;;5034398;28;20651;-50
2024/01/01 08:19:59;;;;;;;1.13;0.83;;;10.70;42.10;;;;;;5034058;28;20174;-57
2024/01/01 08:22:25;;;;;;;2.03;1.43;;;10.80;41.50;;;;;;5034310;28;20174;-56
2024/01/01 08:24:50;;;;;;;3.70;1.43;;;10.90;40.20;;;;;;5034255;28;20197;-50
2024/01/01 08:27:16;;;;;;;2.17;2.07;;;11.00;40.20;;;;;;5034508;28;20185;-53
2024/01/01 08:29:42;;;;;;;2.13;1.57;;;11.00;40.00;;;;;;5033976;28;20177;-55
2024/01/01 08:32:08;;;;;;;2.45;1.77;;;11.10;39.80;;;;;;5034017;28;20228;-50
2024/01/01 08:34:34;;;;;;;1.53;0.67;;;11.20;40.00;;;;;;5033673;28;20213;-57
2024/01/01 08:37:01;;;;;;;2.35;1.60;;;11.30;38.90;;;;;;5034135;28;20223;-56
2024/01/01 08:39:27;;;;;;;1.00;0.77;;;11.30;38.70;;;;;;5034038;28;20185;-50
2024/01/01 08:41:53;;;;;;;1.08;0.73;;;11.40;39.20;;;;;;5033881;28;20257;-51
2024/01/01 08:44:19;;;;;;;2.10;1.80;;;11.40;38.60;;;;;;5033672;28;20316;-54
2024/01/01 08:46:45;;;;;;;1.00;0.67;;;11.50;38.70;;;;;;5033549;28;20174;-51
2024/01/01 08:49:10;;;;;;;1.67;1.20;;;11.60;37.80;;;;;;5033472;28;20285;-57
2024/01/01 08:51:36;;;;;;;1.00;0.70;;;11.60;38.00;;;;;;5033631;28;20178;-58
2024/01/01 08:54:07;;;;;;;1.50;1.40;;;11.60;37.90;;;;;;5033595;28;20205;-50
2024/01/01 08:56:33;;;;;;;2.17;1.65;;;11.60;37.30;;;;;;5033731;28;20285;-57
2024/01/01 08:58:59;;;;;;;1.30;1.20;;;11.60;37.50;;;;;;5033260;28;20190;-56
2024/01/01 09:01:24;;;;;;;5.18;2.42;;;11.60;38.20;;;;;;5033540;28;20174;-50
2024/01/01 09:03:50;;;;;;;3.33;1.07;;;11.70;37.30;;;;;;5033311;28;20265;-52
2024/01/01 09:06:16;;;;;;;4.28;2.65;;;11.70;37.20;;;;;;5033659;28;20174;-55
2024/01/01 09:08:43;;;;;;;1.43;0.77;;;11.80;37.20;;;;;;5033321;28;20265;-51
2024/01/01 09:11:09;;;;;;;1.98;0.60;;;11.70;36.70;;;;;;5033171;28;20188;-53
2024/01/01 09:13:35;;;;;;;1.30;1.20;;;11.70;37.00;;;;;;5033138;28;20220;-50
2024/01/01 09:16:01;;;;;;;1.73;0.93;;;11.90;37.50;;;;;;5033130;28;20221;-54
2024/01/01 09:18:27;;;;;;;1.20;1.02;;;12.10;37.40;;;;;;5033013;28;20261;-49
2024/01/01 09:20:52;;;;;;;5.60;2.10;;;12.30;37.00;;;;;;5033283;28;20604;-56
2024/01/01 09:23:18;;;;;;;1.00;0.67;;;12.40;36.00;;;;;;5033239;28;20981;-56
2024/01/01 09:25:44;;;;;;;3.27;1.67;;;12.40;35.50;;;;;;5033037;28;20255;-50
2024/01/01 09:28:10;;;;;;;2.50;1.30;;;12.30;36.20;;;;;;5032727;28;20202;-56
2024/01/01 09:30:36;;;;;;;2.85;1.75;;;12.30;36.00;;;;;;5032909;28;20413;-53
2024/01/01 09:33:01;;;;;;;2.10;0.63;;;12.30;36.20;;;;;;5032760;28;20236;-52
2024/01/01 09:35:27;;;;;;;1.23;0.70;;;12.40;35.40;;;;;;5032651;28;20209;-55
2024/01/01 09:37:54;;;;;;;1.83;0.87;;;12.50;35.70;;;;;;5032845;28;20257;-49
2024/01/01 09:40:21;;;;;;;1.60;1.50;;;12.50;35.60;;;;;;5032721;28;20249;-55
2024/01/01 09:42:50;;;;;;;1.00;0.63;;;12.60;35.10;;;;;;5032723;28;20596;-53
2024/01/01 09:45:16;;;;;;;1.55;0.60;;;12.90;35.30;;;;;;5032615;28;20564;-49
2024/01/01 09:47:43;;;;;;;1.70;1.60;;;13.10;34.70;;;;;;5032538;28;20794;-54
2024/01/01 09:50:10;;;;;;;1.00;0.70;;;13.50;33.70;;;;;;5032656;28;20181;-50
2024/01/01 09:52:36;;;;;;;4.22;1.67;;;13.90;33.00;;;;;;5032536;28;20659;-51
2024/01/01 09:55:03;;;;;;;4.18;1.60;;;14.20;32.80;;;;;;5032267;28;20202;-56
2024/01/01 09:57:28;;;;;;;4.30;1.75;;;14.50;31.80;;;;;;5032509;28;20649;-50
2024/01/01 09:59:54;;;;;;;3.57;1.47;;;14.50;31.20;;;;;;5031410;28;20733;-53
2024/01/01 10:02:24;;;;;;;1.00;0.60;;;14.40;32.10;;;;;;5032357;28;20543;-54
2024/01/01 10:04:49;;;;;;;2.78;1.92;;;14.50;31.80;;;;;;5032401;28;20440;-51
2024/01/01 10:07:28;;;;;;;4.63;1.90;;;14.60;32.10;;;;;;5032358;28;20306;-55
2024/01/01 10:09:54;;;;;;;1.20;0.90;;;14.80;32.10;;;;;;5032032;28;20535;-51
2024/01/01 10:12:23;;;;;;;1.40;1.13;;;15.50;30.20;;;;;;5032137;28;20184;-52
2024/01/01 10:14:50;;;;;;;1.65;0.93;;;16.10;29.50;;;;;;5032016;28;20206;-58
2024/01/01 10:17:17;;;;;;;1.40;1.13;;;16.70;27.70;;;;;;5032143;28;20548;-51
2024/01/01 10:19:59;;;;;;;1.65;1.30;;;17.10;27.50;;;;;;5032023;28;20417;-53
2024/01/01 10:22:30;;;;;;;1.10;0.80;;;17.50;26.90;;;;;;5032000;28;20174;-50
2024/01/01 10:25:09;;;;;;;1.75;1.20;;;17.70;26.30;;;;;;5031820;28;20205;-55
2024/01/01 10:27:36;;;;;;;1.50;1.40;;;18.00;26.80;;;;;;5032056;28;20255;-54
2024/01/01 10:30:02;;;;;;;1.48;1.05;;;18.10;25.40;;;;;;5031959;28;20174;-49
2024/01/01 10:32:30;;;;;;;2.05;1.30;;;18.10;25.30;;;;;;5032048;28;20220;-52
2024/01/01 10:34:57;;;;;;;1.70;1.38;;;17.80;25.50;;;;;;5031700;28;20683;-51
2024/01/01 10:37:26;;;;;;;5.97;1.40;;;17.60;25.90;;;;;;5031918;28;20178;-50
2024/01/01 10:39:53;;;;;;;1.75;0.88;;;17.10;26.40;;;;;;5031753;28;20742;-52
2024/01/01 10:42:19;;;;;;;1.63;0.95;;;16.80;27.40;;;;;;5031892;28;20212;-52
2024/01/01 10:44:45;;;;;;;1.52;0.95;;;16.70;28.90;;;;;;5031670;28;20196;-50
2024/01/01 10:47:12;;;;;;;2.70;1.13;;;16.80;28.10;;;;;;5031865;28;20181;-53
2024/01/01 10:49:50;;;;;;;1.33;1.10;;;16.40;28.30;;;;;;5031717;28;20282;-57
2024/01/01 10:52:44;;;;;;;1.10;0.80;;;16.70;27.90;;;;;;5031531;28;20177;-52
2024/01/01 10:55:35;;;;;;;1.00;0.70;;;17.40;28.10;;;;;;5031712;28;20251;-52
2024/01/01 10:58:15;;;;;;;2.47;1.20;;;17.30;27.00;;;;;;5031686;28;20178;-52
2024/01/01 11:00:52;;;;;;;2.00;1.90;;;16.70;27.70;;;;;;5031652;28;20189;-52
2024/01/01 11:03:18;;;;;;;8.10;0.98;;;16.00;28.60;;;;;;5031641;28;20177;-50
2024/01/01 11:05:45;;;;;;;3.05;1.02;;;15.90;29.20;;;;;;5031508;28;20695;-57
2024/01/01 11:08:12;;;;;;;2.40;1.65;;;16.00;30.00;;;;;;5031427;28;20259;-56
2024/01/01 11:10:45;;;;;;;1.13;0.60;;;15.90;29.30;;;;;;5033237;28;20218;-48
2024/01/01 11:13:13;;;;;;;1.17;0.80;;;15.80;30.00;;;;;;5035659;28;20273;-55
2024/01/01 11:15:48;;;;;;;1.10;0.85;;;15.60;30.00;;;;;;5035382;28;20266;-51
2024/01/01 11:18:16;;;;;;;2.15;0.90;;;15.30;30.90;;;;;;5035446;28;20643;-56
2024/01/01 11:21:06;;;;;;;1.00;0.60;;;15.10;30.50;;;;;;5035589;28;20170;-51
2024/01/01 11:23:42;;;;;;;5.60;1.08;;;14.90;31.10;;;;;;5035321;28;20174;-51
2024/01/01 11:26:26;;;;;;;1.10;0.70;;;14.70;31.20;;;;;;5035509;28;20273;-56
2024/01/01 11:28:54;;;;;;;1.30;1.08;;;14.50;32.00;;;;;;5035092;28;20555;-49
2024/01/01 11:31:20;;;;;;;1.10;0.60;;;14.50;31.70;;;;;;5035371;28;20655;-55
2024/01/01 11:34:07;;;;;;;1.30;0.70;;;14.50;31.80;;;;;;5035022;28;20182;-57
2024/01/01 11:36:34;;;;;;;1.73;1.50;;;14.40;32.40;;;;;;5035212;28;20202;-51
2024/01/01 11:39:01;;;;;;;1.20;1.00;;;14.40;32.40;;;;;;5034888;28;20181;-57
2024/01/01 11:41:29;;;;;;;1.20;0.70;;;14.40;32.30;;;;;;5035095;28;20204;-51
2024/01/01 11:43:55;;;;;;;1.52;0.60;;;14.30;32.70;;;;;;5034761;28;20174;-50
2024/01/01 11:46:28;;;;;;;1.85;1.27;;;14.30;32.50;;;;;;5034847;28;20699;-52
2024/01/01 11:48:58;;;;;;;1.10;1.00;;;14.20;32.50;;;;;;5034893;28;20256;-50
2024/01/01 11:51:24;;;;;;;1.70;0.70;;;14.00;32.00;;;;;;5034999;28;20182;-56
2024/01/01 11:54:09;;;;;;;1.10;0.83;;;13.80;32.70;;;;;;5034797;28;20227;-52
2024/01/01 11:56:36;;;;;;;1.65;0.95;;;13.70;33.00;;;;;;5034652;28;20452;-51
2024/01/01 11:59:08;;;;;;;2.08;0.65;;;13.50;33.00;;;;;;5034494;28;20185;-57
2024/01/01 12:01:37;;;;;;;0.93;0.52;;;13.50;33.30;;;;;;5034845;28;20546;-50
2024/01/01 12:04:06;;;;;;;1.10;0.80;;;13.40;33.40;;;;;;5034292;28;20244;-58
2024/01/01 12:06:33;;;;;;;1.35;1.25;;;13.40;33.30;;;;;;5034588;28;20240;-57
2024/01/01 12:09:12;;;;;;;1.00;0.50;;;13.40;33.40;;;;;;5034354;28;20408;-50
2024/01/01 12:11:39;;;;;;;1.80;1.13;;;13.50;33.40;;;;;;5034626;28;20236;-58
2024/01/01 12:14:06;;;;;;;1.40;1.10;;;13.50;32.70;;;;;;5034503;28;20233;-57
2024/01/01 12:16:33;;;;;;;5.30;1.75;;;13.50;33.10;;;;;;5034519;28;20224;-49
2024/01/01 12:19:00;;;;;;;1.23;0.50;;;13.40;33.00;;;;;;5034184;28;20179;-50
2024/01/01 12:21:40;;;;;;;1.45;0.50;;;13.70;33.10;;;;;;5033967;28;20200;-54
2024/01/01 12:24:08;;;;;;;2.65;0.85;;;13.70;32.80;;;;;;5034098;28;20194;-49
2024/01/01 12:26:35;;;;;;;1.10;0.73;;;13.80;32.70;;;;;;5034244;28;20174;-57
2024/01/01 12:29:09;;;;;;;1.13;0.60;;;14.00;32.40;;;;;;5034155;28;20797;-49
2024/01/01 12:31:35;;;;;;;1.10;0.73;;;14.20;31.90;;;;;;5034111;28;20582;-55
2024/01/01 12:34:02;;;;;;;1.58;0.80;;;14.50;31.20;;;;;;5033781;28;20305;-50
2024/01/01 12:36:27;;;;;;;0.93;0.52;;;14.50;31.20;;;;;;5033900;28;20585;-59
2024/01/01 12:38:53;;;;;;;3.70;1.55;;;14.80;30.50;;;;;;5034017;28;20170;-58
2024/01/01 12:41:20;;;;;;;0.93;0.50;;;15.30;31.00;;;;;;5034146;28;20166;-52
2024/01/01 12:43:47;;;;;;;1.55;0.85;;;15.60;29.60;;;;;;5034083;28;20281;-58